createdAt,value
2023-01-08T15:48:46.220Z,63.78
2023-01-08T15:49:30.122Z,63.33
2023-01-08T15:50:14.220Z,62.00
2023-01-08T15:50:58.260Z,67.33
2023-01-08T15:51:46.877Z,60.67
2023-01-08T15:52:31.744Z,63.00
2023-01-08T15:53:24.519Z,63.00
2023-01-08T15:54:11.709Z,59.00
2023-01-08T15:55:00.026Z,64.33
2023-01-08T15:55:45.370Z,64.33
2023-01-08T15:56:29.459Z,64.33
2023-01-08T15:57:13.478Z,66.33
2023-01-08T15:57:57.212Z,62.67
2023-01-08T15:58:40.979Z,65.00
2023-01-08T15:59:24.728Z,62.67
2023-01-08T16:00:12.051Z,65.00
2023-01-08T16:00:55.178Z,63.50
2023-01-08T16:01:39.313Z,66.67
2023-01-08T16:02:23.921Z,68.33
2023-01-08T16:03:08.595Z,66.00
2023-01-08T16:03:52.408Z,66.00
2023-01-08T16:04:36.160Z,66.67
2023-01-08T16:05:22.872Z,68.00
2023-01-08T16:06:08.065Z,66.33
2023-01-08T16:06:52.136Z,67.00
2023-01-08T16:07:36.106Z,70.67
2023-01-08T16:08:19.806Z,68.67
2023-01-08T16:09:03.842Z,69.00
2023-01-08T16:09:48.172Z,65.67
2023-01-08T16:10:32.908Z,72.67
2023-01-08T16:11:20.251Z,71.00
2023-01-08T16:12:04.476Z,70.00
2023-01-08T16:12:48.291Z,71.33
2023-01-08T16:13:32.050Z,68.67
2023-01-08T16:14:15.814Z,73.67
2023-01-08T16:14:59.681Z,72.67
2023-01-08T16:15:43.486Z,66.33
2023-01-08T16:16:27.345Z,70.00
2023-01-08T16:17:11.207Z,71.33
2023-01-08T16:17:55.621Z,68.33
2023-01-08T16:18:39.940Z,72.33
2023-01-08T16:19:25.080Z,67.33
2023-01-08T16:20:10.128Z,68.33
2023-01-08T16:21:01.366Z,69.33
2023-01-08T16:21:47.813Z,67.67
2023-01-08T16:22:31.682Z,68.00
2023-01-08T16:23:15.408Z,65.67
2023-01-08T16:23:59.224Z,64.00
2023-01-08T16:24:42.252Z,55.00
2023-01-08T16:25:26.135Z,64.00
2023-01-08T16:26:12.436Z,64.67
2023-01-08T16:26:56.212Z,66.67
2023-01-08T16:27:41.159Z,64.00
2023-01-08T16:28:24.973Z,63.00
2023-01-08T16:29:08.798Z,61.67
2023-01-08T16:29:52.642Z,63.33
2023-01-08T16:30:36.701Z,59.00
2023-01-08T16:31:20.491Z,62.67
2023-01-08T16:32:04.647Z,63.67
2023-01-08T16:32:53.058Z,63.33
2023-01-08T16:33:36.972Z,58.33
2023-01-08T16:34:21.505Z,64.67
2023-01-08T16:35:05.738Z,60.00
2023-01-08T16:36:04.374Z,58.67
2023-01-08T16:36:48.912Z,59.00
2023-01-08T16:37:32.761Z,61.33
2023-01-08T16:38:16.547Z,60.00
2023-01-08T16:39:00.288Z,60.33
2023-01-08T16:39:44.096Z,60.67
2023-01-08T16:40:27.899Z,62.00
2023-01-08T16:41:11.701Z,60.33
2023-01-08T16:41:55.620Z,61.67
2023-01-08T16:42:39.527Z,64.00
2023-01-08T16:43:28.230Z,64.00
2023-01-08T16:44:20.915Z,63.33
2023-01-08T16:45:05.670Z,55.67
2023-01-08T16:45:49.569Z,63.00
2023-01-08T16:46:33.360Z,61.67
2023-01-08T16:47:17.315Z,63.00
2023-01-08T16:48:03.102Z,59.67
2023-01-08T16:48:48.542Z,61.00
2023-01-08T16:49:33.665Z,56.00
2023-01-08T16:50:17.581Z,55.00
2023-01-08T16:51:05.676Z,56.67
2023-01-08T16:51:48.229Z,57.50
2023-01-08T16:52:32.019Z,57.33
2023-01-08T16:53:21.756Z,59.33
2023-01-08T16:54:05.596Z,54.33
2023-01-08T16:54:49.383Z,53.67
2023-01-08T16:55:33.192Z,54.00
2023-01-08T16:56:16.928Z,55.67
2023-01-08T16:56:59.949Z,49.50
2023-01-08T16:57:43.966Z,50.00
2023-01-08T16:58:29.592Z,50.00
2023-01-08T16:59:22.818Z,49.00
2023-01-08T17:00:09.053Z,52.33
2023-01-08T17:00:53.080Z,47.00
2023-01-08T17:01:36.960Z,48.67
2023-01-08T17:02:20.716Z,50.67
